Harlan, IA

4:18 PM CST on November 11, 2019 (GMT -0600)
Harlan Municipal

Weather History for KHNR - September, 2019

Change the Weather History Date:

Thursday, September 19, 2019

  Actual Average Record
Temperature  
Mean Temperature 74 °F -  
Max Temperature 84 °F 75 °F 94 °F (1948)
Min Temperature 64 °F 53 °F 29 °F (1991)
Cooling Degree Days 9    
Growing Degree Days 24 (Base 50)    
Moisture  
Dew Point 69 °F    
Average Humidity 87    
Maximum Humidity 100    
Minimum Humidity 69    
Precipitation  
Precipitation 0.61 in - - ()
Sea Level Pressure  
Sea Level Pressure 29.98 in    
Wind  
Wind Speed 5 mph ()    
Max Wind Speed 16 mph    
Max Gust Speed 26 mph    
Visibility 9.3 miles    
Events      
Averages and records for this station are not official NWS values.
T = Trace of Precipitation, MM = Missing Value Source: Averaged Metar Reports

Daily Weather History Graph

Daily Weather History Graph

Search for Another Location

Airport or City:

Astronomy

Sep. 19, 2019 Rise Set
Actual Time 7:05 AM CDT 7:24 PM CDT
Civil Twilight 6:37 AM CDT 7:51 PM CDT
Nautical Twilight 6:05 AM CDT 8:24 PM CDT
Astronomical Twilight 5:31 AM CDT 8:57 PM CDT
Moon 10:29 PM CDT (9/19) 12:13 PM CDT (9/19)
Length of Visible Light 13h 14m
Length of Day
12h 18m
Waning Gibbous, 74% of the Moon is Illuminated
Sep 19
Waning Gibbous
Sep 21
Last Quarter
Sep 28
New
Oct 5
First Quarter
Oct 13
Full

Hourly Weather History & Observations

Time (CDT) Temp. Heat Index Dew Point Humidity Pressure Visibility Wind Dir Wind Speed Gust Speed Precip Events Conditions
12:15 AM 73.4 °F - 71.6 °F 94% 29.95 in 10.0 mi South 3.5 mph - N/A   Clear
12:35 AM 73.4 °F - 71.6 °F 94% 29.95 in 9.0 mi Calm Calm - N/A   Clear
12:55 AM 71.6 °F - 71.6 °F 100% 29.95 in 10.0 mi Calm Calm - N/A   Clear
1:15 AM 73.4 °F - 71.6 °F 94% 29.94 in 10.0 mi Calm Calm - N/A   Clear
1:35 AM 71.6 °F - 71.6 °F 100% 29.95 in 10.0 mi SSW 4.6 mph - N/A   Clear
1:55 AM 73.4 °F - 71.6 °F 94% 29.95 in 10.0 mi South 5.8 mph - N/A   Partly Cloudy
2:15 AM 73.4 °F - 71.6 °F 94% 29.97 in 10.0 mi WNW 11.5 mph - N/A   Mostly Cloudy
2:55 AM 71.6 °F - 66.2 °F 83% 29.97 in 10.0 mi NW 13.8 mph - N/A   Overcast
3:15 AM 69.8 °F - 64.4 °F 83% 29.98 in 10.0 mi NNW 16.1 mph 23.0 mph N/A   Overcast
3:35 AM 68.0 °F - 64.4 °F 88% 29.96 in 10.0 mi Variable 4.6 mph 16.1 mph N/A   Overcast
3:55 AM 68.0 °F - 66.2 °F 94% 30.00 in 10.0 mi NW 15.0 mph 26.5 mph N/A   Overcast
4:15 AM 66.2 °F - 66.2 °F 100% 30.01 in 6.0 mi NNW 13.8 mph 20.7 mph N/A   Overcast
4:35 AM 66.2 °F - 66.2 °F 100% 30.00 in 7.0 mi North 8.1 mph - N/A   Overcast
4:55 AM 66.2 °F - 66.2 °F 100% 30.01 in 3.0 mi North 5.8 mph - 0.20 in   Overcast
5:15 AM 66.2 °F - 66.2 °F 100% 30.03 in 2.0 mi NNW 9.2 mph - N/A   Overcast
5:55 AM 66.2 °F - 66.2 °F 100% 30.03 in 5.0 mi SSE 3.5 mph - 0.30 in   Overcast
6:15 AM 66.2 °F - 66.2 °F 100% 30.03 in 5.0 mi SSE 4.6 mph - N/A   Overcast
6:35 AM 66.2 °F - 66.2 °F 100% 30.01 in 7.0 mi Calm Calm - N/A   Overcast
6:55 AM 64.4 °F - 64.4 °F 100% 30.02 in 7.0 mi SSE 4.6 mph 12.7 mph 0.05 in   Overcast
7:15 AM 66.2 °F - 66.2 °F 100% 30.05 in 10.0 mi South 8.1 mph - N/A   Mostly Cloudy
7:35 AM 66.2 °F - 66.2 °F 100% 30.03 in 8.0 mi SE 4.6 mph - N/A   Overcast
7:55 AM - - - N/A% 30.03 in 7.0 mi ESE 4.6 mph - 0.04 in   Overcast
8:15 AM 66.2 °F - 66.2 °F 100% 30.01 in 9.0 mi SE 10.4 mph - N/A   Overcast
8:55 AM 68.0 °F - 64.4 °F 88% 29.94 in 10.0 mi East 5.8 mph - 0.01 in   Mostly Cloudy
9:15 AM 68.0 °F - 64.4 °F 88% 29.98 in 10.0 mi South 5.8 mph - N/A   Scattered Clouds
9:35 AM 68.0 °F - 64.4 °F 88% 29.99 in 10.0 mi South 9.2 mph - N/A   Clear
9:55 AM 68.0 °F - 66.2 °F 94% 29.98 in 10.0 mi SSW 10.4 mph - 0.01 in   Clear
10:15 AM 68.0 °F - 66.2 °F 94% 29.99 in 10.0 mi South 13.8 mph 19.6 mph N/A   Clear
10:35 AM 68.0 °F - 66.2 °F 94% 29.99 in 10.0 mi South 8.1 mph - N/A   Clear
10:55 AM 68.0 °F - 66.2 °F 94% 29.99 in 10.0 mi South 11.5 mph - N/A   Clear
11:15 AM 68.0 °F - 66.2 °F 94% 29.99 in 10.0 mi South 5.8 mph 13.8 mph N/A   Clear
11:35 AM 69.8 °F - 66.2 °F 88% 30.01 in 10.0 mi North 5.8 mph - N/A   Clear
11:55 AM 71.6 °F - 66.2 °F 83% 30.02 in 10.0 mi NE 4.6 mph - N/A   Clear
12:15 PM 73.4 °F - 68.0 °F 83% 30.02 in 10.0 mi Variable 4.6 mph - N/A   Clear
12:35 PM 75.2 °F - 68.0 °F 78% 30.02 in 10.0 mi East 6.9 mph - N/A   Clear
1:15 PM 75.2 °F - 68.0 °F 78% 30.01 in 10.0 mi ENE 5.8 mph - N/A   Clear
1:35 PM 77.0 °F - 66.2 °F 69% 30.01 in 10.0 mi Calm Calm - N/A   Clear
1:55 PM 77.0 °F - 68.0 °F 74% 30.00 in 10.0 mi ESE 5.8 mph - N/A   Clear
2:15 PM 78.8 °F - 69.8 °F 74% 29.99 in 10.0 mi East 3.5 mph - N/A   Clear
2:35 PM 80.6 °F 83.9 °F 69.8 °F 70% 29.99 in 10.0 mi Variable 5.8 mph - N/A   Clear
2:55 PM 80.6 °F 83.9 °F 69.8 °F 70% 29.98 in 10.0 mi SSE 5.8 mph - N/A   Clear
3:15 PM 82.4 °F 87.2 °F 71.6 °F 70% 29.98 in 10.0 mi ESE 6.9 mph - N/A   Partly Cloudy
3:35 PM 80.6 °F 84.6 °F 71.6 °F 74% 29.97 in 10.0 mi Calm Calm - N/A   Scattered Clouds
3:55 PM 82.4 °F 87.2 °F 71.6 °F 70% 29.97 in 10.0 mi SE 5.8 mph - N/A   Overcast
4:15 PM 82.4 °F 87.2 °F 71.6 °F 70% 29.97 in 10.0 mi Variable 4.6 mph - N/A   Overcast
4:35 PM 80.6 °F 84.6 °F 71.6 °F 74% 29.96 in 10.0 mi East 4.6 mph - N/A   Overcast
4:55 PM 82.4 °F 88.2 °F 73.4 °F 74% 29.96 in 10.0 mi NE 4.6 mph - N/A   Overcast
5:15 PM 84.2 °F 90.9 °F 73.4 °F 70% 29.96 in 10.0 mi NE 4.6 mph - N/A   Mostly Cloudy
5:35 PM 82.4 °F 88.2 °F 73.4 °F 74% 29.96 in 10.0 mi Calm Calm - N/A   Partly Cloudy
5:55 PM 84.2 °F 90.9 °F 73.4 °F 70% 29.96 in 10.0 mi ESE 4.6 mph - N/A   Partly Cloudy
6:15 PM 82.4 °F 89.5 °F 75.2 °F 79% 29.95 in 10.0 mi ESE 5.8 mph - N/A   Clear
6:35 PM 82.4 °F 89.5 °F 75.2 °F 79% 29.95 in 10.0 mi ESE 5.8 mph - N/A   Clear
6:55 PM 80.6 °F 86.2 °F 75.2 °F 84% 29.95 in 10.0 mi ESE 5.8 mph - N/A   Clear
7:15 PM 78.8 °F - 73.4 °F 83% 29.95 in 10.0 mi SE 4.6 mph - N/A   Clear
7:35 PM 78.8 °F - 71.6 °F 78% 29.95 in 10.0 mi SE 6.9 mph - N/A   Clear
7:55 PM 77.0 °F - 71.6 °F 83% 29.95 in 10.0 mi SSE 5.8 mph - N/A   Clear
8:15 PM 77.0 °F - 71.6 °F 83% 29.96 in 10.0 mi SSE 5.8 mph - N/A   Clear
8:35 PM 77.0 °F - 71.6 °F 83% 29.96 in 10.0 mi South 4.6 mph - N/A   Clear
8:55 PM 75.2 °F - 71.6 °F 89% 29.97 in 10.0 mi Variable 3.5 mph - N/A   Clear
9:15 PM 73.4 °F - 71.6 °F 94% 29.97 in 10.0 mi Calm Calm - N/A   Clear
9:35 PM 75.2 °F - 71.6 °F 89% 29.97 in 10.0 mi SSE 4.6 mph - N/A   Clear
9:55 PM 73.4 °F - 71.6 °F 94% 29.98 in 10.0 mi Variable 4.6 mph - N/A   Clear
10:15 PM 73.4 °F - 71.6 °F 94% 29.98 in 10.0 mi Calm Calm - N/A   Mostly Cloudy
10:35 PM 73.4 °F - 71.6 °F 94% 29.98 in 10.0 mi East 4.6 mph - N/A   Overcast
10:55 PM 73.4 °F - 71.6 °F 94% 29.98 in 10.0 mi East 4.6 mph - N/A   Overcast
11:15 PM 73.4 °F - 71.6 °F 94% 29.98 in 10.0 mi Variable 3.5 mph - N/A   Mostly Cloudy
11:35 PM 71.6 °F - 71.6 °F 100% 29.98 in 10.0 mi ESE 4.6 mph - N/A   Partly Cloudy
11:55 PM 71.6 °F - 71.6 °F 100% 29.99 in 10.0 mi SE 6.9 mph - N/A   Clear